createdAt,value
2018-03-31T00:00:56.286Z,8.17
2018-03-31T00:05:58.441Z,8.67
2018-03-31T00:11:00.589Z,8.27
2018-03-31T00:16:02.747Z,7.07
2018-03-31T00:21:05.649Z,10.43
2018-03-31T00:26:07.801Z,9.77
2018-03-31T00:31:09.937Z,8.93
2018-03-31T00:36:12.099Z,8.97
2018-03-31T00:41:14.249Z,7.80
2018-03-31T00:46:17.157Z,5.87
2018-03-31T00:51:19.309Z,8.77
2018-03-31T00:56:21.449Z,8.90
2018-03-31T01:01:23.601Z,10.73
2018-03-31T01:06:26.507Z,8.63
2018-03-31T01:11:28.672Z,7.43
2018-03-31T01:16:30.826Z,9.40
2018-03-31T01:21:33.741Z,8.17
2018-03-31T01:26:35.873Z,9.30
2018-03-31T01:31:41.557Z,8.73
2018-03-31T01:36:43.691Z,9.43
2018-03-31T01:41:45.831Z,8.53
2018-03-31T01:46:47.981Z,9.13
2018-03-31T01:51:50.137Z,8.47
2018-03-31T01:56:52.278Z,6.73
2018-03-31T02:01:54.442Z,8.60
2018-03-31T02:06:57.365Z,7.03
2018-03-31T02:11:59.502Z,9.70
2018-03-31T02:17:01.657Z,10.17
2018-03-31T02:22:03.813Z,7.03
2018-03-31T02:27:06.719Z,7.03
2018-03-31T02:32:08.877Z,9.90
2018-03-31T02:37:11.011Z,8.73
2018-03-31T02:42:13.142Z,9.83
2018-03-31T02:47:15.278Z,9.60
2018-03-31T02:52:18.073Z,8.33
2018-03-31T02:57:20.206Z,8.73
2018-03-31T03:02:22.345Z,7.53
2018-03-31T03:07:24.503Z,13.03
2018-03-31T03:12:26.657Z,8.00
2018-03-31T03:17:28.798Z,12.80
2018-03-31T03:22:30.946Z,8.17
2018-03-31T03:27:33.099Z,9.83
2018-03-31T03:32:35.993Z,7.90
2018-03-31T03:37:38.155Z,11.93
2018-03-31T03:42:40.309Z,8.57
2018-03-31T03:47:42.446Z,8.97
2018-03-31T03:52:44.593Z,9.40
2018-03-31T03:57:47.518Z,11.73
2018-03-31T04:02:49.670Z,7.77
2018-03-31T04:07:51.825Z,7.87
2018-03-31T04:13:00.257Z,9.07
2018-03-31T04:18:02.418Z,9.73
2018-03-31T04:23:04.564Z,8.40
2018-03-31T04:28:06.699Z,8.67
2018-03-31T04:33:08.856Z,8.67
2018-03-31T04:38:11.769Z,10.87
2018-03-31T04:43:13.905Z,8.43
2018-03-31T04:48:16.059Z,8.77
2018-03-31T04:53:18.194Z,9.50
2018-03-31T04:58:20.342Z,9.77
2018-03-31T05:03:23.237Z,16.93
2018-03-31T05:08:25.398Z,10.13
2018-03-31T05:13:27.534Z,10.13
2018-03-31T05:18:29.693Z,8.57
2018-03-31T05:23:32.585Z,9.57
2018-03-31T05:28:34.718Z,8.00
2018-03-31T05:33:36.866Z,10.30
2018-03-31T05:38:40.926Z,11.40
2018-03-31T05:43:43.063Z,10.67
2018-03-31T05:48:45.213Z,10.93
2018-03-31T05:53:47.341Z,10.30
2018-03-31T05:58:49.487Z,9.73
2018-03-31T06:03:51.622Z,16.10
2018-03-31T06:08:53.801Z,11.83
2018-03-31T06:13:55.930Z,11.23
2018-03-31T06:18:58.109Z,11.87
2018-03-31T06:24:00.245Z,10.33
2018-03-31T06:29:02.383Z,11.13
2018-03-31T06:34:04.535Z,9.67
2018-03-31T06:39:06.699Z,13.73
2018-03-31T06:44:08.829Z,15.13
2018-03-31T06:49:10.981Z,11.43
2018-03-31T06:54:13.167Z,9.23
2018-03-31T06:59:15.330Z,14.07
2018-03-31T07:04:17.463Z,9.93
2018-03-31T07:09:19.622Z,15.33
2018-03-31T07:14:21.763Z,14.00
2018-03-31T07:19:23.918Z,12.23
2018-03-31T07:24:26.835Z,14.07
2018-03-31T07:29:28.990Z,10.60
2018-03-31T07:34:31.893Z,12.53
2018-03-31T07:39:34.050Z,13.73
2018-03-31T07:44:36.177Z,15.87
2018-03-31T07:49:40.223Z,10.70
2018-03-31T07:54:42.353Z,14.43
2018-03-31T07:59:44.508Z,18.07
2018-03-31T08:04:46.646Z,13.97
2018-03-31T08:09:54.319Z,13.63
2018-03-31T08:15:10.069Z,13.73
2018-03-31T08:20:12.217Z,12.63
2018-03-31T08:25:14.364Z,18.00
2018-03-31T08:30:16.513Z,14.37
2018-03-31T08:35:18.651Z,17.10
2018-03-31T08:40:20.798Z,16.10
2018-03-31T08:45:23.893Z,16.80
2018-03-31T08:50:26.054Z,13.83
2018-03-31T08:55:28.192Z,14.00
2018-03-31T09:00:30.358Z,15.60
2018-03-31T09:11:00.281Z,14.43
2018-03-31T09:16:02.409Z,15.30
2018-03-31T09:21:04.565Z,18.50
2018-03-31T09:26:26.002Z,16.23
2018-03-31T09:31:29.113Z,19.27
2018-03-31T09:36:31.256Z,19.47
2018-03-31T09:41:34.427Z,13.97
2018-03-31T09:46:36.635Z,22.10
2018-03-31T09:51:39.502Z,15.53
2018-03-31T09:56:41.658Z,17.30
2018-03-31T10:01:43.803Z,16.17
2018-03-31T10:06:45.955Z,18.97
2018-03-31T10:11:48.865Z,20.03
2018-03-31T10:16:54.164Z,16.30
2018-03-31T10:21:56.334Z,19.53
2018-03-31T10:26:58.469Z,17.37
2018-03-31T10:32:00.615Z,16.33
2018-03-31T10:37:02.762Z,14.67
2018-03-31T10:42:05.690Z,17.70
2018-03-31T10:47:07.849Z,20.13
2018-03-31T10:52:10.777Z,22.10
2018-03-31T19:23:37.687Z,33.28
2018-03-31T19:28:39.940Z,26.00
2018-03-31T19:33:42.857Z,26.27
2018-03-31T19:38:45.286Z,26.80
2018-03-31T19:43:47.504Z,27.23
2018-03-31T19:48:50.411Z,27.23
2018-03-31T19:53:52.590Z,26.53
2018-03-31T19:58:54.734Z,26.10
2018-03-31T20:03:56.891Z,24.87
2018-03-31T20:08:59.042Z,25.93
2018-03-31T20:14:01.207Z,25.77
2018-03-31T20:19:03.562Z,27.17
2018-03-31T20:24:05.721Z,28.80
2018-03-31T20:29:08.642Z,29.97
2018-03-31T20:34:12.565Z,31.30
2018-03-31T20:39:14.707Z,30.27
2018-03-31T20:44:17.629Z,27.97
2018-03-31T20:49:19.779Z,30.50
2018-03-31T20:54:21.928Z,27.97
2018-03-31T20:59:24.073Z,28.00
2018-03-31T21:04:26.238Z,25.80
2018-03-31T21:09:28.390Z,26.73
2018-03-31T21:14:30.555Z,27.60
2018-03-31T21:19:33.623Z,28.87
2018-03-31T21:24:35.777Z,26.80
2018-03-31T21:29:37.924Z,28.60
2018-03-31T21:34:40.071Z,24.07
2018-03-31T21:39:42.229Z,23.10
2018-03-31T21:44:45.146Z,21.07
2018-03-31T21:49:48.074Z,18.80
2018-03-31T21:54:50.233Z,22.67
2018-03-31T21:59:52.394Z,22.50
2018-03-31T22:04:54.535Z,18.63
2018-03-31T22:09:56.700Z,18.50
2018-03-31T22:15:04.402Z,18.47
2018-03-31T22:20:06.558Z,20.03
2018-03-31T22:25:08.714Z,25.43
2018-03-31T22:30:10.866Z,22.80
2018-03-31T22:35:13.005Z,22.03
2018-03-31T22:40:15.162Z,31.37
2018-03-31T22:45:17.306Z,32.70
2018-03-31T22:50:19.460Z,39.77
2018-03-31T22:55:22.362Z,49.00
2018-03-31T23:00:24.513Z,25.50
2018-03-31T23:05:26.647Z,27.87
2018-03-31T23:10:28.803Z,29.67
2018-03-31T23:15:30.937Z,37.00
2018-03-31T23:20:33.859Z,24.67
2018-03-31T23:25:36.786Z,20.93
2018-03-31T23:30:39.695Z,15.87
2018-03-31T23:35:41.855Z,17.43
2018-03-31T23:40:43.992Z,22.60
2018-03-31T23:45:46.150Z,17.03
2018-03-31T23:50:48.294Z,18.23
2018-03-31T23:55:50.453Z,15.53
